Time;durP1;ratioP1;P1;durP2;ratioP2;P2;SDS_P1;SDS_P2;PMS_P1;PMS_P2;Temp;Humidity;BMP_temperature;BMP_pressure;BME280_temperature;BME280_humidity;BME280_pressure;Samples;Min_cycle;Max_cycle;Signal;HPM_P1;HPM_P2
2022/04/08 00:02:14;;;;;;;2.43;0.90;;;;;;;;;;5062968;23;20481;-93
2022/04/08 00:04:46;;;;;;;4.70;0.80;;;;;;;;;;5062702;28;20480;-92
2022/04/08 00:07:27;;;;;;;1.50;0.70;;;8.50;99.90;;;;;;5068142;28;20450;-93
2022/04/08 00:09:55;;;;;;;2.20;0.90;;;8.50;99.90;;;;;;5080255;22;20457;-93
2022/04/08 00:12:25;;;;;;;3.27;1.17;;;;;;;;;;5086968;28;20453;-92
2022/04/08 00:14:55;;;;;;;5.50;1.37;;;;;;;;;;5098934;22;20584;-93
2022/04/08 00:17:26;;;;;;;5.33;1.00;;;;;;;;;;5090927;28;20453;-93
2022/04/08 00:19:56;;;;;;;1.33;0.80;;;;;;;;;;5083306;28;20477;-94
2022/04/08 00:22:40;;;;;;;4.30;1.07;;;8.60;99.90;;;;;;5100185;22;20482;-93
2022/04/08 00:25:08;;;;;;;4.20;0.80;;;;;;;;;;5092600;28;20450;-92
2022/04/08 00:27:44;;;;;;;5.10;0.93;;;8.60;99.90;;;;;;5132634;22;20485;-90
2022/04/08 00:30:16;;;;;;;1.97;0.50;;;;;;;;;;5090826;28;20444;-92
2022/04/08 00:33:01;;;;;;;6.67;1.70;;;8.40;99.90;;;;;;5093535;28;20434;-92
2022/04/08 00:35:29;;;;;;;2.07;0.80;;;;;;;;;;5105816;22;20481;-93
2022/04/08 00:37:56;;;;;;;1.30;0.70;;;;;;;;;;5089283;28;20485;-90
2022/04/08 00:40:26;;;;;;;4.40;1.30;;;;;;;;;;5085983;28;20553;-91
2022/04/08 00:42:56;;;;;;;2.00;0.63;;;;;;;;;;5128063;22;20490;-91
2022/04/08 00:45:23;;;;;;;2.23;1.10;;;;;;;;;;5085817;28;20421;-90
2022/04/08 00:47:55;;;;;;;2.30;0.73;;;;;;;;;;5086318;28;20852;-91
2022/04/08 00:50:29;;;;;;;2.23;0.67;;;;;;;;;;5099517;22;20541;-90
2022/04/08 00:52:58;;;;;;;0.77;0.70;;;;;;;;;;5097034;28;20449;-90
2022/04/08 00:55:27;;;;;;;2.63;0.90;;;;;;;;;;5096828;28;20468;-90
2022/04/08 00:58:12;;;;;;;2.10;0.70;;;8.40;99.90;;;;;;5105804;22;20482;-89
2022/04/08 01:03:27;;;;;;;5.80;1.20;;;8.30;99.90;;;;;;5098474;22;20473;-89
2022/04/08 01:05:56;;;;;;;1.40;0.80;;;;;;;;;;5096306;28;20183;-91
2022/04/08 01:08:24;;;;;;;3.80;0.70;;;;;;;;;;5094475;28;20429;-90
2022/04/08 01:10:54;;;;;;;6.13;0.97;;;8.30;99.90;;;;;;5104950;22;20469;-93
2022/04/08 01:13:23;;;;;;;1.03;0.50;;;8.30;99.90;;;;;;5098942;22;20521;-91
2022/04/08 01:15:57;;;;;;;4.57;1.43;;;;;;;;;;5089331;28;20438;-93
2022/04/08 01:18:27;;;;;;;3.97;1.00;;;8.30;99.90;;;;;;5094372;28;20528;-90
2022/04/08 01:21:07;;;;;;;1.70;0.80;;;;;;;;;;5143265;22;21074;-91
2022/04/08 01:23:35;;;;;;;3.40;0.73;;;;;;;;;;5057190;28;20454;-93
2022/04/08 01:26:06;;;;;;;3.63;1.00;;;;;;;;;;5068925;28;20451;-92
2022/04/08 01:28:36;;;;;;;4.47;0.80;;;;;;;;;;5080883;22;20481;-92
2022/04/08 01:31:10;;;;;;;3.37;0.90;;;;;;;;;;5089565;28;20448;-93
2022/04/08 01:34:10;;;;;;;2.70;0.60;;;;;;;;;;5109174;22;20496;-90
2022/04/08 01:36:40;;;;;;;3.90;1.17;;;;;;;;;;5098246;22;20492;-92
2022/04/08 01:39:08;;;;;;;1.97;1.03;;;;;;;;;;5093918;28;20500;-91
2022/04/08 01:41:47;;;;;;;3.43;0.73;;;8.10;99.90;;;;;;5098733;22;20716;-93
2022/04/08 01:44:17;;;;;;;15.30;0.80;;;;;;;;;;5087404;22;20481;-90
2022/04/08 01:46:47;;;;;;;2.63;0.93;;;;;;;;;;5061809;28;20518;-92
2022/04/08 01:49:17;;;;;;;4.43;1.27;;;8.10;99.90;;;;;;5043996;23;20487;-91
2022/04/08 01:51:44;;;;;;;3.83;1.10;;;;;;;;;;5088367;28;20414;-91
2022/04/08 01:54:11;;;;;;;2.83;0.57;;;;;;;;;;5088290;28;20490;-92
2022/04/08 01:56:40;;;;;;;3.17;0.90;;;;;;;;;;5085759;28;20477;-89
2022/04/08 01:59:10;;;;;;;2.60;1.00;;;8.10;99.90;;;;;;5086161;28;20449;-93
2022/04/08 02:01:40;;;;;;;3.30;0.90;;;;;;;;;;5086549;28;20612;-91
2022/04/08 02:04:09;;;;;;;1.03;0.50;;;8.00;99.90;;;;;;5115714;22;20491;-95
2022/04/08 02:06:43;;;;;;;2.10;0.80;;;;;;;;;;5095676;28;20441;-93
2022/04/08 02:09:11;;;;;;;1.40;0.73;;;8.00;99.90;;;;;;5099488;22;20560;-91
2022/04/08 02:14:27;;;;;;;3.17;0.90;;;;;;;;;;5068012;23;20478;-91
2022/04/08 02:16:55;;;;;;;7.50;0.80;;;;;;;;;;5070457;28;20446;-91
2022/04/08 02:19:24;;;;;;;4.70;1.10;;;;;;;;;;5070189;28;20474;-90
2022/04/08 02:21:53;;;;;;;3.20;1.17;;;;;;;;;;5093928;23;20484;-91
2022/04/08 02:24:20;;;;;;;6.40;1.73;;;;;;;;;;5090665;28;20441;-91
2022/04/08 02:26:48;;;;;;;9.10;1.17;;;;;;;;;;5087686;28;20944;-91
2022/04/08 02:29:15;;;;;;;3.43;0.70;;;;;;;;;;5088406;28;20446;-92
2022/04/08 02:31:43;;;;;;;4.53;0.77;;;;;;;;;;5085033;28;20446;-90
2022/04/08 02:34:14;;;;;;;1.30;0.70;;;;;;;;;;5086684;28;20434;-92
2022/04/08 02:36:43;;;;;;;2.67;0.80;;;;;;;;;;5086664;28;20444;-90
2022/04/08 02:39:12;;;;;;;9.27;1.50;;;;;;;;;;5086740;28;20462;-92
2022/04/08 02:41:40;;;;;;;2.50;0.50;;;;;;;;;;5093548;22;20513;-90
2022/04/08 02:44:08;;;;;;;3.90;1.00;;;;;;;;;;5087436;28;20430;-93
2022/04/08 02:46:36;;;;;;;2.97;1.20;;;;;;;;;;5085479;28;20442;-91
2022/04/08 02:49:07;;;;;;;4.07;1.70;;;;;;;;;;5096441;22;20479;-91
2022/04/08 02:51:34;;;;;;;1.87;1.17;;;;;;;;;;5085808;28;20445;-91
2022/04/08 02:54:01;;;;;;;5.40;0.83;;;;;;;;;;5095460;22;20478;-91
2022/04/08 02:56:28;;;;;;;2.87;1.00;;;;;;;;;;5089038;28;20466;-91
2022/04/08 02:58:57;;;;;;;3.97;0.60;;;;;;;;;;5090684;28;20430;-90
2022/04/08 03:01:24;;;;;;;1.60;0.70;;;;;;;;;;5088944;28;20486;-90
2022/04/08 03:03:51;;;;;;;4.37;0.97;;;;;;;;;;5087742;28;20430;-89
2022/04/08 03:06:20;;;;;;;2.77;1.10;;;7.50;99.90;;;;;;5094777;22;20469;-90
2022/04/08 03:08:47;;;;;;;3.73;1.13;;;;;;;;;;5089028;28;20951;-90
2022/04/08 03:11:14;;;;;;;1.20;0.70;;;;;;;;;;5088442;28;20430;-91
2022/04/08 03:13:43;;;;;;;4.83;1.03;;;;;;;;;;5087452;28;20457;-91
2022/04/08 03:16:14;;;;;;;4.63;0.90;;;;;;;;;;5084665;28;20438;-92
2022/04/08 03:18:41;;;;;;;1.63;0.87;;;;;;;;;;5084885;28;20453;-91
2022/04/08 03:21:08;;;;;;;4.60;1.07;;;;;;;;;;5087636;28;20441;-90
2022/04/08 03:23:39;;;;;;;3.20;0.93;;;;;;;;;;5078703;28;20442;-91
2022/04/08 03:26:06;;;;;;;2.73;0.90;;;;;;;;;;5077506;28;20454;-92
2022/04/08 03:28:33;;;;;;;2.17;0.80;;;;;;;;;;5078087;28;20458;-90
2022/04/08 03:31:01;;;;;;;5.10;0.80;;;;;;;;;;5083569;28;20458;-91
2022/04/08 03:33:30;;;;;;;5.20;0.80;;;;;;;;;;5086009;28;20442;-88
2022/04/08 03:35:58;;;;;;;2.53;1.00;;;;;;;;;;5112978;22;20481;-91
2022/04/08 03:38:25;;;;;;;3.03;1.33;;;;;;;;;;5087808;28;20525;-91
2022/04/08 03:41:04;;;;;;;1.90;1.17;;;;;;;;;;5086470;22;20490;-91
2022/04/08 03:43:32;;;;;;;2.77;0.83;;;;;;;;;;5092551;28;20460;-91
2022/04/08 03:46:03;;;;;;;2.73;0.90;;;;;;;;;;5124099;22;20493;-90
2022/04/08 03:48:30;;;;;;;1.57;1.00;;;;;;;;;;5091948;28;20430;-91
2022/04/08 03:50:57;;;;;;;3.17;1.00;;;;;;;;;;5091931;28;20538;-90
2022/04/08 03:53:31;;;;;;;2.50;1.00;;;7.10;99.90;;;;;;5097885;22;20488;-90
2022/04/08 03:56:19;;;;;;;2.67;0.90;;;7.10;99.90;;;;;;5100637;22;20464;-91
2022/04/08 03:58:47;;;;;;;3.10;1.30;;;;;;;;;;5089915;22;20485;-93
2022/04/08 04:01:14;;;;;;;1.20;0.90;;;;;;;;;;5098413;22;20485;-92
2022/04/08 04:03:41;;;;;;;2.83;1.27;;;;;;;;;;5081877;28;20438;-90
2022/04/08 04:06:09;;;;;;;4.63;1.37;;;;;;;;;;5083607;28;20917;-91
2022/04/08 04:08:36;;;;;;;1.60;0.67;;;;;;;;;;5083696;28;20458;-91
2022/04/08 04:11:03;;;;;;;5.37;0.77;;;;;;;;;;5083423;28;20427;-91
2022/04/08 04:13:34;;;;;;;3.50;0.87;;;7.10;99.90;;;;;;5077655;22;20502;-90
2022/04/08 04:16:01;;;;;;;1.30;0.60;;;;;;;;;;5062046;28;20500;-89
2022/04/08 04:18:28;;;;;;;5.00;1.23;;;;;;;;;;5064077;28;20442;-91
2022/04/08 04:20:55;;;;;;;4.10;1.17;;;;;;;;;;5066568;28;20461;-90
2022/04/08 04:23:22;;;;;;;4.87;1.13;;;;;;;;;;5062481;28;20442;-89
2022/04/08 04:25:49;;;;;;;5.53;1.47;;;;;;;;;;5063746;28;20464;-89
2022/04/08 04:28:16;;;;;;;2.43;0.93;;;;;;;;;;5067142;28;20435;-90
2022/04/08 04:30:45;;;;;;;6.90;1.30;;;;;;;;;;5077444;23;20484;-91
2022/04/08 04:33:12;;;;;;;2.93;0.90;;;;;;;;;;5083268;28;20432;-92
2022/04/08 04:35:40;;;;;;;6.03;1.80;;;7.00;99.90;;;;;;5082947;28;20441;-92
2022/04/08 04:38:07;;;;;;;7.20;2.20;;;;;;;;;;5087449;28;20445;-91
2022/04/08 04:40:38;;;;;;;4.90;1.87;;;;;;;;;;5104595;22;20483;-91
2022/04/08 04:43:20;;;;;;;1.00;0.73;;;6.90;99.90;;;;;;5103537;22;20548;-90
2022/04/08 04:45:49;;;;;;;4.73;1.07;;;6.80;99.90;;;;;;5103720;22;20461;-91
2022/04/08 04:48:19;;;;;;;4.00;0.97;;;;;;;;;;5103762;22;20480;-92
2022/04/08 04:50:47;;;;;;;11.10;3.37;;;;;;;;;;5099414;22;20490;-91
2022/04/08 04:53:14;;;;;;;20.40;7.80;;;;;;;;;;5089038;23;20510;-91
2022/04/08 04:55:42;;;;;;;28.80;14.40;;;;;;;;;;5091534;22;20478;-91
2022/04/08 04:58:09;;;;;;;12.57;5.37;;;;;;;;;;5093264;28;20417;-90
2022/04/08 05:00:37;;;;;;;9.87;6.30;;;;;;;;;;5091523;28;20798;-92
2022/04/08 05:03:06;;;;;;;15.10;6.23;;;;;;;;;;5077698;23;20486;-91
2022/04/08 05:05:33;;;;;;;6.63;3.03;;;;;;;;;;5062758;23;20499;-91
2022/04/08 05:08:16;;;;;;;12.03;6.80;;;7.00;99.90;;;;;;5055975;28;20454;-91
2022/04/08 05:10:44;;;;;;;15.90;6.70;;;;;;;;;;5066336;23;20490;-91
2022/04/08 05:13:12;;;;;;;12.30;7.97;;;;;;;;;;5070760;23;20482;-91
2022/04/08 05:15:42;;;;;;;11.60;5.27;;;;;;;;;;5057225;23;20491;-91
2022/04/08 05:18:11;;;;;;;7.77;4.20;;;7.00;99.90;;;;;;5073279;23;20479;-92
2022/04/08 05:20:40;;;;;;;10.33;6.80;;;;;;;;;;5061645;23;20436;-91
2022/04/08 05:23:11;;;;;;;10.50;6.40;;;7.00;99.90;;;;;;5061655;23;20485;-91
2022/04/08 05:25:38;;;;;;;33.00;17.33;;;;;;;;;;5053275;28;20455;-91
2022/04/08 05:28:06;;;;;;;14.83;5.83;;;6.80;99.90;;;;;;5052774;28;20442;-91
2022/04/08 05:30:33;;;;;;;22.80;10.00;;;;;;;;;;5052484;28;20436;-92
2022/04/08 05:33:00;;;;;;;8.83;3.70;;;;;;;;;;5060250;23;20502;-91
2022/04/08 05:35:28;;;;;;;25.93;14.20;;;7.10;99.90;;;;;;5053760;28;20428;-92
2022/04/08 05:37:56;;;;;;;9.07;3.90;;;;;;;;;;5047997;28;20432;-92
2022/04/08 05:40:23;;;;;;;18.80;7.23;;;;;;;;;;5052022;28;20451;-91
2022/04/08 05:42:51;;;;;;;29.10;14.90;;;7.10;99.90;;;;;;5044022;28;20482;-93
2022/04/08 05:45:21;;;;;;;11.63;6.33;;;7.20;99.90;;;;;;4988266;28;20885;-91
2022/04/08 05:47:50;;;;;;;46.57;17.80;;;;;;;;;;4994839;28;20469;-91
2022/04/08 05:50:19;;;;;;;31.50;12.00;;;7.20;99.90;;;;;;4984525;28;20528;-92
2022/04/08 05:52:48;;;;;;;16.47;7.10;;;7.20;99.90;;;;;;4984920;28;20447;-91
2022/04/08 05:57:46;;;;;;;5.73;1.63;;;;;;;;;;5030295;23;20488;-91
2022/04/08 06:00:15;;;;;;;7.47;3.33;;;7.30;99.90;;;;;;5018427;28;20198;-91
2022/04/08 06:02:43;;;;;;;6.33;2.13;;;7.20;99.90;;;;;;5019183;28;20484;-94
2022/04/08 06:05:15;;;;;;;8.07;1.80;;;;;;;;;;5016954;28;20457;-92
2022/04/08 06:07:47;;;;;;;8.10;1.93;;;7.30;99.90;;;;;;5013344;28;20487;-92
2022/04/08 06:10:18;;;;;;;5.60;1.47;;;;;;;;;;5009128;28;20445;-94
2022/04/08 06:12:46;;;;;;;15.27;8.73;;;;;;;;;;5015505;28;20461;-92
2022/04/08 06:15:13;;;;;;;25.20;13.37;;;;;;;;;;5020728;28;21018;-90
2022/04/08 06:17:41;;;;;;;10.87;6.57;;;;;;;;;;5018518;28;20441;-94
2022/04/08 06:20:10;;;;;;;14.10;4.77;;;7.20;99.90;;;;;;5021027;28;20448;-91
2022/04/08 06:22:39;;;;;;;6.33;2.20;;;;;;;;;;5018497;28;20488;-91
2022/04/08 06:25:09;;;;;;;5.90;2.67;;;6.90;99.90;;;;;;5018760;28;20449;-93
2022/04/08 06:27:36;;;;;;;5.03;2.40;;;;;;;;;;5020739;28;20456;-93
2022/04/08 06:30:04;;;;;;;2.80;0.83;;;;;;;;;;5021118;28;20471;-93
2022/04/08 06:32:31;;;;;;;2.13;1.17;;;;;;;;;;5024196;28;20436;-91
2022/04/08 06:34:58;;;;;;;1.57;0.40;;;;;;;;;;5024973;28;20481;-92
2022/04/08 06:37:28;;;;;;;0.50;0.30;;;;;;;;;;5018938;28;20945;-90
2022/04/08 06:39:55;;;;;;;1.10;0.70;;;;;;;;;;5017698;28;20467;-92
2022/04/08 06:42:23;;;;;;;2.67;0.90;;;6.30;99.90;;;;;;5018198;28;20484;-89
2022/04/08 06:44:51;;;;;;;1.77;1.10;;;;;;;;;;5018336;28;20460;-95
2022/04/08 06:47:18;;;;;;;1.87;0.57;;;;;;;;;;5010759;28;20463;-92
2022/04/08 06:49:46;;;;;;;5.97;0.80;;;;;;;;;;5015972;28;20669;-89
2022/04/08 06:52:14;;;;;;;0.97;0.40;;;;;;;;;;5016452;28;20487;-90
2022/04/08 06:54:41;;;;;;;3.50;1.17;;;;;;;;;;5015453;28;20459;-95
2022/04/08 06:57:08;;;;;;;2.70;0.50;;;;;;;;;;5015559;28;20487;-94
2022/04/08 06:59:37;;;;;;;5.33;1.27;;;6.10;99.90;;;;;;5015650;28;20461;-91
2022/04/08 07:02:07;;;;;;;0.93;0.60;;;6.40;99.90;;;;;;5011516;28;20496;-93
2022/04/08 07:04:34;;;;;;;3.63;1.10;;;;;;;;;;5012586;28;20543;-94
2022/04/08 07:07:04;;;;;;;2.93;1.10;;;;;;;;;;5013079;28;20440;-94
2022/04/08 07:09:32;;;;;;;5.57;0.90;;;;;;;;;;5015272;28;20441;-92
2022/04/08 07:11:59;;;;;;;2.23;0.90;;;;;;;;;;5015277;28;20448;-91
2022/04/08 07:14:27;;;;;;;2.17;1.10;;;;;;;;;;5015963;28;20452;-92
2022/04/08 07:16:55;;;;;;;8.10;1.07;;;6.00;99.90;;;;;;5016437;28;20424;-91
2022/04/08 07:19:22;;;;;;;6.57;1.70;;;;;;;;;;5036061;23;20557;-92
2022/04/08 07:21:49;;;;;;;4.63;1.20;;;;;;;;;;5041095;28;20758;-91
2022/04/08 07:24:17;;;;;;;5.00;1.17;;;;;;;;;;5035556;28;20446;-93
2022/04/08 07:26:44;;;;;;;3.23;1.20;;;;;;;;;;5036040;28;20471;-95
2022/04/08 07:29:30;;;;;;;5.63;1.13;;;6.20;99.90;;;;;;5034338;28;20939;-93
2022/04/08 07:31:58;;;;;;;1.77;0.80;;;5.90;99.90;;;;;;5031583;28;20455;-95
2022/04/08 07:34:25;;;;;;;2.10;0.60;;;;;;;;;;5034998;28;20436;-94
2022/04/08 07:36:52;;;;;;;1.00;0.80;;;;;;;;;;5032040;28;20919;-94
2022/04/08 07:39:19;;;;;;;4.00;0.57;;;;;;;;;;5035039;28;20439;-95
2022/04/08 07:41:46;;;;;;;2.70;1.00;;;;;;;;;;5035082;28;20444;-93
2022/04/08 07:44:13;;;;;;;7.73;0.97;;;;;;;;;;5031387;28;20440;-94
2022/04/08 07:46:41;;;;;;;0.50;0.30;;;;;;;;;;5035626;28;20540;-96
2022/04/08 07:49:10;;;;;;;1.30;0.90;;;;;;;;;;5038147;28;20451;-93
2022/04/08 07:51:37;;;;;;;2.37;0.50;;;;;;;;;;5034587;28;20442;-95
2022/04/08 07:54:04;;;;;;;2.70;0.90;;;;;;;;;;5034599;28;20456;-92
2022/04/08 07:56:35;;;;;;;0.70;0.50;;;;;;;;;;5030267;28;20471;-93
2022/04/08 07:59:02;;;;;;;4.30;1.40;;;;;;;;;;5034425;28;20456;-93
2022/04/08 08:01:29;;;;;;;3.87;0.87;;;;;;;;;;5031627;28;20459;-93
2022/04/08 08:03:56;;;;;;;1.57;0.70;;;;;;;;;;5031404;28;20877;-93
2022/04/08 08:06:25;;;;;;;5.97;1.53;;;;;;;;;;5035101;28;20451;-95
2022/04/08 08:08:55;;;;;;;1.10;0.80;;;;;;;;;;5032197;28;20451;-92
2022/04/08 08:11:22;;;;;;;0.60;0.43;;;;;;;;;;5031198;28;20463;-93
2022/04/08 08:13:49;;;;;;;1.70;0.97;;;;;;;;;;5034281;28;20969;-93
2022/04/08 08:16:16;;;;;;;2.37;0.63;;;;;;;;;;5033335;28;20443;-93
2022/04/08 08:18:43;;;;;;;2.37;0.37;;;;;;;;;;5035963;28;20451;-90
2022/04/08 08:21:12;;;;;;;1.57;0.63;;;;;;;;;;5054441;28;20922;-92
2022/04/08 08:23:40;;;;;;;1.20;0.70;;;;;;;;;;5051008;28;20994;-92
2022/04/08 08:26:08;;;;;;;1.40;0.70;;;;;;;;;;5051059;28;20458;-93
2022/04/08 08:28:35;;;;;;;0.70;0.53;;;;;;;;;;5051087;28;20933;-92
2022/04/08 08:31:04;;;;;;;1.07;0.50;;;;;;;;;;5046322;28;20466;-92
2022/04/08 08:33:31;;;;;;;0.50;0.40;;;;;;;;;;5050668;28;20826;-93
2022/04/08 08:35:58;;;;;;;4.00;0.80;;;;;;;;;;5051437;28;20453;-93
2022/04/08 08:38:25;;;;;;;1.17;0.70;;;;;;;;;;5050158;28;20426;-93
2022/04/08 08:40:55;;;;;;;0.50;0.33;;;;;;;;;;5054312;28;20898;-94
2022/04/08 08:43:22;;;;;;;0.73;0.37;;;;;;;;;;5054150;28;20478;-92
2022/04/08 08:45:50;;;;;;;0.60;0.37;;;6.50;99.90;;;;;;5053740;28;20461;-95
2022/04/08 08:48:17;;;;;;;3.23;1.20;;;;;;;;;;5051273;28;21147;-92
2022/04/08 08:50:50;;;;;;;2.00;0.67;;;6.50;99.90;;;;;;5055055;28;20435;-95
2022/04/08 08:53:18;;;;;;;1.33;1.13;;;6.70;99.90;;;;;;5047408;28;20529;-93
2022/04/08 08:55:46;;;;;;;0.70;0.60;;;;;;;;;;5019209;28;20474;-94
2022/04/08 08:58:14;;;;;;;4.30;0.80;;;7.10;99.90;;;;;;5054424;28;20439;-93
2022/04/08 09:00:41;;;;;;;1.67;0.60;;;;;;;;;;5053651;28;20423;-93
2022/04/08 09:03:09;;;;;;;0.80;0.67;;;;;;;;;;5056504;28;20490;-94
2022/04/08 09:05:42;;;;;;;1.27;0.40;;;6.60;99.90;;;;;;5056455;28;20509;-92
2022/04/08 09:08:09;;;;;;;2.80;1.10;;;;;;;;;;5053469;28;20528;-90
2022/04/08 09:10:39;;;;;;;1.97;0.57;;;6.70;99.90;;;;;;5064712;28;20812;-90
2022/04/08 09:13:07;;;;;;;0.60;0.60;;;6.50;99.90;;;;;;5058506;28;20450;-92
2022/04/08 09:15:38;;;;;;;0.60;0.40;;;6.40;99.90;;;;;;5064067;28;20533;-89
2022/04/08 09:18:11;;;;;;;0.80;0.40;;;6.50;99.90;;;;;;5069448;28;20510;-89
2022/04/08 09:20:39;;;;;;;5.17;0.70;;;6.60;99.90;;;;;;5073250;28;20476;-89
2022/04/08 09:23:08;;;;;;;1.93;0.70;;;6.60;99.90;;;;;;5071103;28;20485;-90
2022/04/08 09:25:35;;;;;;;0.77;0.50;;;;;;;;;;5066628;28;20446;-91
2022/04/08 09:28:06;;;;;;;0.50;0.47;;;6.70;99.90;;;;;;5069447;28;20490;-91
2022/04/08 09:30:33;;;;;;;0.70;0.40;;;;;;;;;;5045030;28;20451;-88
2022/04/08 09:33:12;;;;;;;0.83;0.50;;;6.80;99.90;;;;;;5038757;28;20451;-87
2022/04/08 09:35:42;;;;;;;0.50;0.40;;;;;;;;;;5036062;28;20454;-92
2022/04/08 09:38:09;;;;;;;0.60;0.30;;;;;;;;;;5041254;28;20463;-89
2022/04/08 09:40:37;;;;;;;0.70;0.50;;;6.90;99.90;;;;;;5038348;28;20440;-93
2022/04/08 09:43:05;;;;;;;0.97;0.50;;;;;;;;;;5032549;28;21045;-93
2022/04/08 09:45:32;;;;;;;25.10;10.20;;;;;;;;;;5037623;28;20427;-91
2022/04/08 09:47:59;;;;;;;10.80;7.20;;;7.00;99.90;;;;;;5042022;28;20858;-90
2022/04/08 09:50:27;;;;;;;0.80;0.47;;;7.00;99.90;;;;;;5026512;28;20448;-88
2022/04/08 09:52:55;;;;;;;2.30;0.57;;;;;;;;;;5040302;28;20463;-90
2022/04/08 09:55:23;;;;;;;1.50;0.60;;;6.70;99.90;;;;;;5036684;28;20467;-93
2022/04/08 09:57:54;;;;;;;2.93;0.70;;;6.80;99.90;;;;;;5032443;28;20452;-92
2022/04/08 10:00:21;;;;;;;1.33;0.40;;;;;;;;;;5033228;28;20831;-90
2022/04/08 10:02:52;;;;;;;1.90;1.10;;;6.80;99.90;;;;;;5035540;28;20447;-91
2022/04/08 10:05:20;;;;;;;11.70;10.80;;;;;;;;;;5033337;28;20451;-90
2022/04/08 10:07:51;;;;;;;2.10;1.23;;;7.10;99.90;;;;;;5033406;28;20470;-88
2022/04/08 10:10:22;;;;;;;2.50;1.30;;;7.10;99.90;;;;;;5035627;28;20447;-89
2022/04/08 10:13:05;;;;;;;1.40;1.30;;;7.40;99.90;;;;;;5034902;28;20451;-90
2022/04/08 10:15:37;;;;;;;0.90;0.50;;;7.50;99.90;;;;;;5032320;28;20463;-91
2022/04/08 10:18:05;;;;;;;0.90;0.50;;;7.70;99.90;;;;;;5036162;28;20460;-90
2022/04/08 10:20:33;;;;;;;0.50;0.47;;;7.80;99.90;;;;;;5041247;28;20476;-91
2022/04/08 10:23:09;;;;;;;1.77;0.77;;;7.70;99.90;;;;;;4975285;28;20489;-91
2022/04/08 10:25:39;;;;;;;4.10;0.80;;;7.60;99.90;;;;;;4975021;28;20442;-92
2022/04/08 10:28:06;;;;;;;0.90;0.60;;;;;;;;;;4975093;28;20435;-91
2022/04/08 10:30:36;;;;;;;0.47;0.40;;;7.30;99.90;;;;;;4971339;28;20482;-90
2022/04/08 10:33:05;;;;;;;3.47;0.80;;;7.40;99.90;;;;;;4972148;28;20478;-90
2022/04/08 10:35:32;;;;;;;2.00;1.40;;;;;;;;;;4974609;28;20454;-89
2022/04/08 10:38:00;;;;;;;2.80;2.60;;;7.20;99.90;;;;;;4974544;28;20929;-89
2022/04/08 10:40:33;;;;;;;2.70;2.47;;;7.10;99.90;;;;;;4974385;28;20468;-90
2022/04/08 10:43:01;;;;;;;0.97;0.90;;;7.10;99.90;;;;;;4972597;28;20493;-91
2022/04/08 10:45:29;;;;;;;1.17;0.93;;;;;;;;;;4973743;28;20473;-87
2022/04/08 10:47:58;;;;;;;2.90;1.00;;;;;;;;;;5011960;28;20452;-89
2022/04/08 10:50:26;;;;;;;2.30;1.57;;;7.20;99.90;;;;;;5034618;28;20462;-89
2022/04/08 10:53:05;;;;;;;1.23;1.10;;;7.20;99.90;;;;;;5036029;28;20443;-88
2022/04/08 10:55:33;;;;;;;1.80;0.83;;;7.30;99.90;;;;;;5034896;28;20479;-92
2022/04/08 10:58:01;;;;;;;1.40;1.10;;;7.10;99.90;;;;;;5034976;28;20451;-92
2022/04/08 11:00:28;;;;;;;1.30;1.10;;;;;;;;;;5032603;28;20452;-90
2022/04/08 11:02:56;;;;;;;2.50;1.60;;;7.10;99.90;;;;;;5034752;28;20447;-94
2022/04/08 11:05:23;;;;;;;2.17;1.33;;;;;;;;;;5035638;28;20524;-90
2022/04/08 11:07:51;;;;;;;2.40;2.20;;;7.00;99.90;;;;;;5036701;28;20455;-92
2022/04/08 11:10:19;;;;;;;3.70;1.33;;;7.00;99.90;;;;;;5032132;28;20448;-88
2022/04/08 11:12:49;;;;;;;2.60;1.80;;;7.10;99.90;;;;;;5034640;28;20462;-89
2022/04/08 11:15:16;;;;;;;3.40;3.10;;;;;;;;;;5030964;28;20458;-86
2022/04/08 11:17:44;;;;;;;1.80;1.20;;;;;;;;;;5033100;28;20464;-87
2022/04/08 11:20:13;;;;;;;1.80;1.20;;;7.20;99.90;;;;;;5047643;28;20482;-91
2022/04/08 11:22:41;;;;;;;3.63;1.00;;;7.20;99.90;;;;;;5053873;28;20454;-90
2022/04/08 11:25:10;;;;;;;3.23;1.43;;;6.80;99.90;;;;;;5051465;28;20493;-87
2022/04/08 11:27:38;;;;;;;7.07;6.37;;;6.80;99.90;;;;;;5049007;28;20471;-91
2022/04/08 11:30:10;;;;;;;6.17;5.00;;;6.50;99.90;;;;;;5054941;28;20447;-90
2022/04/08 11:32:39;;;;;;;3.10;2.77;;;;;;;;;;5053084;28;20450;-86
2022/04/08 11:35:13;;;;;;;4.23;3.90;;;6.80;99.90;;;;;;5052433;28;20826;-87
2022/04/08 11:37:40;;;;;;;5.70;4.07;;;;;;;;;;5053583;28;20450;-88
2022/04/08 11:40:08;;;;;;;3.53;3.23;;;7.50;99.90;;;;;;5053461;28;20446;-89
2022/04/08 11:42:36;;;;;;;7.60;7.00;;;6.90;99.90;;;;;;5049331;28;20461;-87
2022/04/08 11:45:04;;;;;;;4.73;4.33;;;;;;;;;;5053079;28;20505;-87
2022/04/08 11:47:36;;;;;;;1.90;1.80;;;7.00;99.90;;;;;;5052291;28;20482;-89
2022/04/08 11:50:06;;;;;;;2.33;1.77;;;7.00;99.90;;;;;;5053630;28;20446;-91
2022/04/08 11:52:33;;;;;;;2.87;1.60;;;;;;;;;;5053650;28;20442;-87
2022/04/08 11:55:05;;;;;;;1.53;1.00;;;6.60;99.90;;;;;;5055980;28;20486;-89
2022/04/08 11:57:34;;;;;;;2.20;2.10;;;6.80;99.90;;;;;;5048789;28;20454;-87
2022/04/08 12:00:04;;;;;;;1.30;1.20;;;6.90;99.90;;;;;;5053565;28;20538;-87
2022/04/08 12:02:33;;;;;;;1.17;1.07;;;6.80;99.90;;;;;;5052887;28;20457;-87
2022/04/08 12:05:00;;;;;;;1.20;1.10;;;;;;;;;;5053476;28;20454;-92
2022/04/08 12:07:29;;;;;;;1.80;1.40;;;6.90;99.90;;;;;;5053873;28;20854;-88
2022/04/08 12:09:58;;;;;;;1.30;1.20;;;6.90;99.90;;;;;;5053687;28;20559;-89
2022/04/08 12:12:26;;;;;;;1.63;1.20;;;7.00;99.90;;;;;;5060295;28;20930;-92
2022/04/08 12:14:53;;;;;;;1.33;1.23;;;;;;;;;;5058943;28;20490;-92
2022/04/08 12:17:21;;;;;;;5.47;1.60;;;;;;;;;;5069345;28;21012;-90
2022/04/08 12:19:52;;;;;;;2.20;2.00;;;6.90;99.90;;;;;;5074941;28;20479;-91
2022/04/08 12:22:21;;;;;;;1.20;1.10;;;;;;;;;;5069895;28;20465;-92
2022/04/08 12:24:49;;;;;;;1.33;1.23;;;7.00;99.90;;;;;;5064468;28;20486;-88
2022/04/08 12:27:19;;;;;;;1.83;1.50;;;5.30;99.90;;;;;;5064832;28;20467;-90
2022/04/08 12:29:46;;;;;;;1.37;1.27;;;;;;;;;;5065132;28;21011;-92
2022/04/08 12:32:15;;;;;;;1.77;1.67;;;6.60;99.90;;;;;;5059391;28;20434;-91
2022/04/08 12:34:42;;;;;;;2.23;1.53;;;6.70;99.90;;;;;;5059575;28;21005;-88
2022/04/08 12:37:11;;;;;;;2.10;1.57;;;6.80;99.90;;;;;;5052832;28;20447;-87
2022/04/08 12:39:38;;;;;;;1.80;1.70;;;;;;;;;;5052933;28;20447;-91
2022/04/08 12:42:06;;;;;;;5.40;4.63;;;;;;;;;;5055748;28;20447;-88
2022/04/08 12:44:33;;;;;;;8.20;7.60;;;;;;;;;;5041116;28;20495;-88
2022/04/08 12:47:00;;;;;;;2.40;1.20;;;;;;;;;;5037214;28;20451;-89
2022/04/08 12:49:27;;;;;;;1.53;1.43;;;;;;;;;;5038672;28;20457;-92
2022/04/08 12:51:54;;;;;;;1.80;1.70;;;;;;;;;;5040529;28;20451;-91
2022/04/08 12:54:24;;;;;;;2.50;1.80;;;6.70;99.90;;;;;;5038819;28;20491;-91
2022/04/08 12:56:51;;;;;;;28.80;25.70;;;;;;;;;;5041338;28;20542;-92
2022/04/08 12:59:20;;;;;;;3.50;3.20;;;6.70;99.90;;;;;;5040367;28;20443;-87
2022/04/08 13:01:47;;;;;;;2.00;1.90;;;;;;;;;;5004985;28;20459;-89
2022/04/08 13:04:15;;;;;;;16.70;15.07;;;;;;;;;;5037325;28;20455;-93
2022/04/08 13:06:42;;;;;;;2.67;2.47;;;;;;;;;;5042634;28;20435;-95
2022/04/08 13:09:09;;;;;;;3.60;3.20;;;;;;;;;;5040503;28;20455;-93
2022/04/08 13:11:37;;;;;;;2.27;2.00;;;6.80;99.90;;;;;;5042143;28;20442;-91
2022/04/08 13:14:04;;;;;;;10.70;9.57;;;;;;;;;;5041773;28;20486;-90
2022/04/08 13:16:31;;;;;;;3.30;2.57;;;;;;;;;;5041236;28;20455;-93
2022/04/08 13:18:59;;;;;;;3.53;2.30;;;;;;;;;;5034763;28;20475;-89
2022/04/08 13:21:26;;;;;;;4.90;4.50;;;;;;;;;;5022297;28;20448;-93
2022/04/08 13:23:53;;;;;;;7.70;6.53;;;;;;;;;;5025676;28;20941;-91
2022/04/08 13:26:20;;;;;;;10.80;8.20;;;;;;;;;;5023940;28;20464;-88
2022/04/08 13:28:49;;;;;;;16.20;14.17;;;7.10;99.90;;;;;;5030208;28;20475;-89
2022/04/08 13:31:16;;;;;;;20.70;13.17;;;;;;;;;;5027572;28;20436;-87
2022/04/08 13:33:43;;;;;;;61.27;40.60;;;;;;;;;;5029489;28;20452;-89
2022/04/08 13:36:10;;;;;;;5.60;3.63;;;;;;;;;;5028807;28;20843;-94
2022/04/08 13:38:37;;;;;;;18.03;13.03;;;;;;;;;;5016596;28;20551;-89
2022/04/08 13:41:04;;;;;;;6.80;6.20;;;;;;;;;;5016753;28;20463;-90
2022/04/08 13:43:31;;;;;;;3.43;3.10;;;;;;;;;;5016638;28;20455;-90
2022/04/08 13:46:00;;;;;;;7.30;4.97;;;7.80;99.90;;;;;;5016588;28;20968;-90
2022/04/08 13:48:27;;;;;;;5.90;4.60;;;;;;;;;;5015004;28;20460;-91
2022/04/08 13:50:54;;;;;;;6.57;5.37;;;;;;;;;;5023377;28;20456;-90
2022/04/08 13:53:22;;;;;;;4.07;3.70;;;;;;;;;;5022805;28;20457;-87
2022/04/08 13:55:49;;;;;;;6.47;5.83;;;;;;;;;;5023279;28;20554;-89
2022/04/08 13:58:17;;;;;;;5.10;4.60;;;;;;;;;;5017072;28;20816;-91
2022/04/08 14:00:44;;;;;;;8.03;7.23;;;6.80;99.90;;;;;;5014486;28;20495;-88
2022/04/08 14:03:13;;;;;;;9.57;7.23;;;7.00;99.90;;;;;;5014850;28;20453;-90
2022/04/08 14:05:40;;;;;;;6.10;5.30;;;;;;;;;;5037038;28;20462;-94
2022/04/08 14:08:08;;;;;;;4.80;4.00;;;7.10;99.90;;;;;;5037340;28;20448;-94
2022/04/08 14:10:35;;;;;;;14.03;12.67;;;;;;;;;;5038450;28;20440;-89
2022/04/08 14:13:06;;;;;;;8.40;7.30;;;;;;;;;;5040271;28;20446;-88
2022/04/08 14:15:33;;;;;;;5.70;4.90;;;;;;;;;;5047013;28;20523;-88
2022/04/08 14:18:00;;;;;;;6.27;5.07;;;;;;;;;;5051750;28;20447;-91
2022/04/08 14:20:28;;;;;;;4.37;3.00;;;7.10;99.90;;;;;;5041510;28;20471;-89